Time;durP1;ratioP1;P1;durP2;ratioP2;P2;SDS_P1;SDS_P2;PMS_P1;PMS_P2;Temp;Humidity;BMP_temperature;BMP_pressure;BME280_temperature;BME280_humidity;BME280_pressure;Samples;Min_cycle;Max_cycle;Signal;HPM_P1;HPM_P2
2022/07/06 00:00:46;;;;;;;0.30;0.30;;;18.90;91.10;;;;;;4445480;32;20073;-66
2022/07/06 00:03:12;;;;;;;0.32;0.32;;;18.90;91.20;;;;;;4443574;32;20143;-66
2022/07/06 00:05:37;;;;;;;0.30;0.30;;;18.80;91.40;;;;;;4443529;32;20065;-66
2022/07/06 00:08:03;;;;;;;0.35;0.35;;;18.80;91.60;;;;;;4443899;32;20442;-66
2022/07/06 00:10:28;;;;;;;0.20;0.20;;;18.70;91.50;;;;;;4445950;32;20363;-66
2022/07/06 00:12:54;;;;;;;0.40;0.40;;;18.70;91.80;;;;;;4415497;32;20072;-66
2022/07/06 00:15:19;;;;;;;1.40;0.75;;;18.70;92.00;;;;;;4445589;32;20065;-66
2022/07/06 00:17:45;;;;;;;0.20;0.20;;;18.60;92.00;;;;;;4445916;32;20529;-66
2022/07/06 00:20:10;;;;;;;0.30;0.30;;;18.70;92.00;;;;;;4435801;32;20061;-66
2022/07/06 00:22:36;;;;;;;0.20;0.20;;;18.70;92.00;;;;;;4404988;32;20227;-66
2022/07/06 00:25:01;;;;;;;0.20;0.20;;;18.70;92.00;;;;;;4431666;32;20081;-66
2022/07/06 00:27:27;;;;;;;0.40;0.40;;;18.60;92.20;;;;;;4446381;32;20072;-66
2022/07/06 00:29:52;;;;;;;0.20;0.20;;;18.60;92.30;;;;;;4445815;32;20073;-66
2022/07/06 00:32:18;;;;;;;0.28;0.28;;;18.60;92.40;;;;;;4446971;32;20553;-66
2022/07/06 00:34:43;;;;;;;0.20;0.20;;;18.50;92.60;;;;;;4446443;32;20065;-66
2022/07/06 00:37:09;;;;;;;0.25;0.25;;;18.50;92.70;;;;;;4446790;32;20073;-66
2022/07/06 00:39:34;;;;;;;0.20;0.20;;;18.50;92.80;;;;;;4445764;32;20573;-65
2022/07/06 00:42:00;;;;;;;0.32;0.32;;;18.50;93.00;;;;;;4446319;32;20073;-65
2022/07/06 00:44:26;;;;;;;0.20;0.20;;;18.50;93.00;;;;;;4423969;32;20073;-65
2022/07/06 00:46:51;;;;;;;3.22;0.77;;;18.60;92.90;;;;;;4433585;32;20528;-65
2022/07/06 00:50:20;;;;;;;0.40;0.40;;;18.60;93.00;;;;;;4412441;32;20116;-65
2022/07/06 00:52:03;;;;;;;0.20;0.20;;;18.60;92.90;;;;;;4393324;32;20822;-65
2022/07/06 00:54:31;;;;;;;0.30;0.30;;;18.50;93.30;;;;;;4420800;32;20562;-65
2022/07/06 00:56:57;;;;;;;0.20;0.20;;;18.40;93.50;;;;;;4445641;32;20077;-65
2022/07/06 00:59:24;;;;;;;0.30;0.30;;;18.40;93.60;;;;;;4445878;32;20074;-65
2022/07/06 01:01:50;;;;;;;0.35;0.35;;;18.40;93.80;;;;;;4446113;32;20065;-65
2022/07/06 01:04:15;;;;;;;0.20;0.20;;;18.30;93.90;;;;;;4445579;32;20119;-66
2022/07/06 01:06:41;;;;;;;0.20;0.20;;;18.30;94.00;;;;;;4444946;32;20418;-66
2022/07/06 01:09:06;;;;;;;0.45;0.45;;;18.30;94.10;;;;;;4445437;32;20077;-66
2022/07/06 01:11:32;;;;;;;1.87;0.93;;;18.20;94.20;;;;;;4431391;32;20077;-66
2022/07/06 01:14:00;;;;;;;0.30;0.30;;;18.20;94.40;;;;;;4439714;32;20072;-66
2022/07/06 01:16:25;;;;;;;0.20;0.20;;;18.00;94.70;;;;;;4444577;32;20068;-66
2022/07/06 01:18:51;;;;;;;0.55;0.55;;;18.00;94.90;;;;;;4442163;32;20574;-66
2022/07/06 01:21:16;;;;;;;0.50;0.50;;;18.00;95.00;;;;;;4424921;32;20350;-66
2022/07/06 01:23:44;;;;;;;0.40;0.40;;;18.10;95.10;;;;;;4422279;32;20231;-66
2022/07/06 01:26:12;;;;;;;0.20;0.20;;;18.20;94.90;;;;;;4440476;32;20136;-66
2022/07/06 01:28:38;;;;;;;0.30;0.30;;;18.20;94.80;;;;;;4418751;32;20115;-66
2022/07/06 01:31:03;;;;;;;0.20;0.20;;;18.00;95.10;;;;;;4424543;32;178666;-65
2022/07/06 01:33:28;;;;;;;0.20;0.20;;;18.00;95.50;;;;;;4430961;32;20116;-65
2022/07/06 01:35:54;;;;;;;0.37;0.37;;;17.90;95.50;;;;;;4430256;32;20085;-65
2022/07/06 01:38:19;;;;;;;0.20;0.20;;;17.90;95.80;;;;;;4430503;32;20077;-65
2022/07/06 01:40:45;;;;;;;0.30;0.30;;;17.70;96.00;;;;;;4429653;32;20505;-65
2022/07/06 01:43:10;;;;;;;0.60;0.47;;;17.80;96.10;;;;;;4424960;32;20542;-65
2022/07/06 01:45:36;;;;;;;0.20;0.20;;;17.70;96.30;;;;;;4433171;32;20119;-65
2022/07/06 01:48:06;;;;;;;0.25;0.25;;;17.90;96.20;;;;;;4430499;32;20065;-65
2022/07/06 01:50:31;;;;;;;0.30;0.30;;;18.00;96.10;;;;;;4416612;32;20077;-65
2022/07/06 01:52:59;;;;;;;0.30;0.30;;;18.00;96.10;;;;;;4403316;32;20082;-66
2022/07/06 01:55:25;;;;;;;3.10;1.12;;;18.00;96.20;;;;;;4418512;32;20529;-66
2022/07/06 01:57:50;;;;;;;0.20;0.20;;;17.90;96.40;;;;;;4434744;32;20085;-66
2022/07/06 02:00:16;;;;;;;0.30;0.30;;;17.80;96.50;;;;;;4429989;32;20065;-66
2022/07/06 02:02:41;;;;;;;0.30;0.30;;;17.80;96.80;;;;;;4429519;32;20078;-66
2022/07/06 02:05:07;;;;;;;0.22;0.22;;;17.80;96.70;;;;;;4417003;32;20077;-65
2022/07/06 02:07:32;;;;;;;0.20;0.20;;;17.70;96.70;;;;;;4442684;32;20065;-65
2022/07/06 02:09:58;;;;;;;1.65;0.57;;;17.70;96.70;;;;;;4444624;32;20062;-65
2022/07/06 02:12:23;;;;;;;8.35;1.75;;;17.80;96.70;;;;;;4435687;32;20460;-65
2022/07/06 02:14:49;;;;;;;0.30;0.30;;;17.70;96.90;;;;;;4425567;32;20518;-65
2022/07/06 02:17:14;;;;;;;10.00;0.40;;;17.80;96.80;;;;;;4437851;32;20573;-65
2022/07/06 02:19:40;;;;;;;0.30;0.30;;;17.80;97.40;;;;;;4437490;32;20065;-65
2022/07/06 02:22:05;;;;;;;0.37;0.37;;;17.70;97.60;;;;;;4421276;32;20058;-65
2022/07/06 02:24:31;;;;;;;0.47;0.47;;;17.70;98.40;;;;;;4411298;32;20520;-65
2022/07/06 02:26:56;;;;;;;0.17;0.17;;;17.60;98.70;;;;;;4444791;32;20065;-65
2022/07/06 02:29:22;;;;;;;0.30;0.30;;;17.40;99.50;;;;;;4445756;32;20465;-65
2022/07/06 02:31:48;;;;;;;0.20;0.20;;;17.20;99.90;;;;;;4445034;32;20538;-65
2022/07/06 02:34:13;;;;;;;0.20;0.20;;;17.20;99.90;;;;;;4431212;32;20474;-65
2022/07/06 02:36:39;;;;;;;0.95;0.47;;;17.10;99.90;;;;;;4443596;32;20068;-65
2022/07/06 02:39:04;;;;;;;0.35;0.35;;;17.20;99.90;;;;;;4444678;32;20093;-65
2022/07/06 02:41:30;;;;;;;0.47;0.47;;;17.10;99.90;;;;;;4444193;32;20414;-65
2022/07/06 02:43:55;;;;;;;0.30;0.30;;;17.10;99.90;;;;;;4438101;32;20076;-65
2022/07/06 02:46:21;;;;;;;0.30;0.30;;;17.00;99.90;;;;;;4445208;32;20065;-65
2022/07/06 02:48:46;;;;;;;0.20;0.20;;;16.90;99.90;;;;;;4442082;32;20060;-65
2022/07/06 02:51:12;;;;;;;0.30;0.30;;;16.90;99.90;;;;;;4411832;32;20072;-65
2022/07/06 02:53:37;;;;;;;0.20;0.20;;;17.00;99.90;;;;;;4421616;32;20061;-65
2022/07/06 02:56:03;;;;;;;0.30;0.30;;;17.00;99.90;;;;;;4439353;32;20135;-65
2022/07/06 02:58:28;;;;;;;0.20;0.20;;;17.10;99.90;;;;;;4445141;32;20094;-65
2022/07/06 03:00:54;;;;;;;0.32;0.32;;;17.10;99.90;;;;;;4445383;32;20064;-65
2022/07/06 03:03:19;;;;;;;0.35;0.35;;;17.00;99.90;;;;;;4445369;32;20549;-65
2022/07/06 03:05:46;;;;;;;0.68;0.40;;;17.00;99.90;;;;;;4444694;32;20081;-65
2022/07/06 03:08:12;;;;;;;0.30;0.30;;;17.10;99.90;;;;;;4443369;32;20422;-65
2022/07/06 03:10:37;;;;;;;0.30;0.30;;;17.00;99.90;;;;;;4445489;32;20119;-65
2022/07/06 03:13:03;;;;;;;0.32;0.32;;;17.00;99.90;;;;;;4439844;32;20556;-65
2022/07/06 03:15:28;;;;;;;0.40;0.40;;;17.10;99.90;;;;;;4444684;32;20060;-65
2022/07/06 03:17:54;;;;;;;0.30;0.30;;;17.10;99.90;;;;;;4443663;32;20081;-65
2022/07/06 03:20:19;;;;;;;0.30;0.30;;;17.00;99.90;;;;;;4431325;32;20061;-65
2022/07/06 03:22:45;;;;;;;0.30;0.30;;;16.90;99.90;;;;;;4417939;32;20107;-65
2022/07/06 03:25:10;;;;;;;0.20;0.20;;;17.00;99.90;;;;;;4432716;32;20167;-65
2022/07/06 03:27:36;;;;;;;0.20;0.20;;;16.90;99.90;;;;;;4443946;32;20081;-65
2022/07/06 03:30:02;;;;;;;0.62;0.62;;;16.90;99.90;;;;;;4444612;32;20521;-65
2022/07/06 03:32:29;;;;;;;0.30;0.30;;;16.80;99.90;;;;;;4428532;32;20168;-65
2022/07/06 03:34:54;;;;;;;0.20;0.20;;;16.80;99.90;;;;;;4428957;32;20061;-65
2022/07/06 03:37:20;;;;;;;2.47;1.17;;;16.80;99.90;;;;;;4430607;32;20132;-65
2022/07/06 03:39:45;;;;;;;0.25;0.25;;;16.80;99.90;;;;;;4427912;32;20414;-65
2022/07/06 03:42:11;;;;;;;0.30;0.30;;;16.80;99.90;;;;;;4428965;32;20533;-65
2022/07/06 03:44:36;;;;;;;0.30;0.30;;;16.90;99.90;;;;;;4428407;32;20085;-65
2022/07/06 03:47:02;;;;;;;0.30;0.30;;;16.80;99.90;;;;;;4447777;32;20076;-65
2022/07/06 03:49:27;;;;;;;0.15;0.15;;;16.70;99.90;;;;;;4438952;32;20108;-65
2022/07/06 03:51:54;;;;;;;0.35;0.25;;;16.60;99.90;;;;;;4407692;32;20128;-65
2022/07/06 03:54:19;;;;;;;0.20;0.20;;;16.70;99.90;;;;;;4424826;32;20089;-65
2022/07/06 03:56:45;;;;;;;0.30;0.30;;;16.70;99.90;;;;;;4445861;32;20057;-65
2022/07/06 03:59:10;;;;;;;0.88;0.88;;;16.70;99.90;;;;;;4447664;32;20094;-65
2022/07/06 04:01:36;;;;;;;0.30;0.30;;;16.80;99.90;;;;;;4448131;32;20060;-65
2022/07/06 04:04:01;;;;;;;0.55;0.55;;;16.80;99.90;;;;;;4435945;32;20081;-65
2022/07/06 04:06:27;;;;;;;0.40;0.40;;;16.80;99.90;;;;;;4436322;32;20521;-66
2022/07/06 04:08:52;;;;;;;0.20;0.20;;;16.90;99.90;;;;;;4445722;32;20077;-66
2022/07/06 04:11:18;;;;;;;0.28;0.28;;;16.90;99.90;;;;;;4443974;32;20506;-65
2022/07/06 04:13:43;;;;;;;1.60;0.60;;;17.00;99.90;;;;;;4428983;32;20160;-65
2022/07/06 04:16:09;;;;;;;1.85;0.70;;;16.90;99.90;;;;;;4432100;32;20135;-66
2022/07/06 04:18:35;;;;;;;0.20;0.20;;;17.00;99.90;;;;;;4428598;32;20073;-66
2022/07/06 04:21:02;;;;;;;0.20;0.20;;;17.00;99.90;;;;;;4410963;32;20426;-66
2022/07/06 04:23:27;;;;;;;0.20;0.20;;;16.90;99.90;;;;;;4383778;32;20093;-66
2022/07/06 04:25:52;;;;;;;0.28;0.28;;;16.90;99.90;;;;;;4395485;32;20398;-67
2022/07/06 04:28:18;;;;;;;0.22;0.22;;;16.90;99.90;;;;;;4402077;32;20161;-67
2022/07/06 04:30:44;;;;;;;0.20;0.20;;;16.90;99.90;;;;;;4400650;32;20101;-67
2022/07/06 04:33:09;;;;;;;0.25;0.25;;;16.90;99.90;;;;;;4393192;32;20069;-66
2022/07/06 04:35:35;;;;;;;0.80;0.45;;;16.90;99.90;;;;;;4433575;32;20078;-67
2022/07/06 04:38:00;;;;;;;9.65;0.82;;;16.70;99.90;;;;;;4446201;32;20085;-67
2022/07/06 04:40:26;;;;;;;18.50;0.50;;;16.70;99.90;;;;;;4442824;32;20073;-66
2022/07/06 04:42:51;;;;;;;0.35;0.32;;;16.80;99.90;;;;;;4427175;32;20086;-66
2022/07/06 04:45:17;;;;;;;0.30;0.30;;;16.90;99.90;;;;;;4436869;32;20429;-66
2022/07/06 04:47:44;;;;;;;0.20;0.20;;;17.00;99.90;;;;;;4446975;32;20105;-66
2022/07/06 04:50:09;;;;;;;0.45;0.40;;;17.10;99.90;;;;;;4433668;32;20066;-66
2022/07/06 04:52:35;;;;;;;0.85;0.40;;;17.20;99.90;;;;;;4405649;32;20915;-66
2022/07/06 04:55:04;;;;;;;0.32;0.32;;;17.10;99.90;;;;;;4395869;32;20073;-66
2022/07/06 04:57:29;;;;;;;0.47;0.47;;;17.10;99.90;;;;;;4437027;32;20435;-66
2022/07/06 04:59:55;;;;;;;1.75;0.98;;;17.10;99.90;;;;;;4442548;32;20070;-66
2022/07/06 05:02:21;;;;;;;0.20;0.20;;;17.20;99.90;;;;;;4428716;32;20223;-66
2022/07/06 05:04:46;;;;;;;0.30;0.30;;;17.20;99.90;;;;;;4401417;32;20082;-67
2022/07/06 05:07:12;;;;;;;0.45;0.43;;;17.10;99.90;;;;;;4394968;32;20250;-67
2022/07/06 05:09:37;;;;;;;0.47;0.40;;;17.20;99.90;;;;;;4397501;32;20073;-67
2022/07/06 05:12:03;;;;;;;1.58;0.93;;;17.20;99.90;;;;;;4395984;32;20801;-66
2022/07/06 05:14:29;;;;;;;4.45;0.95;;;17.30;99.90;;;;;;4381123;32;20262;-66
2022/07/06 05:16:54;;;;;;;0.50;0.50;;;17.20;99.90;;;;;;4395398;32;20612;-66
2022/07/06 05:19:20;;;;;;;0.65;0.65;;;17.10;99.90;;;;;;4343767;32;20463;-67
2022/07/06 05:21:45;;;;;;;0.20;0.20;;;16.90;99.90;;;;;;4347882;32;20264;-67
2022/07/06 05:24:11;;;;;;;0.30;0.30;;;16.90;99.90;;;;;;4321313;32;20096;-66
2022/07/06 05:26:37;;;;;;;0.75;0.75;;;17.00;99.90;;;;;;4342145;32;20357;-67
2022/07/06 05:29:02;;;;;;;0.20;0.20;;;17.10;99.90;;;;;;4351226;32;20945;-67
2022/07/06 05:31:29;;;;;;;0.37;0.37;;;17.20;99.90;;;;;;4333772;32;20081;-66
2022/07/06 05:33:55;;;;;;;0.30;0.30;;;17.30;99.90;;;;;;4358672;32;20252;-67
2022/07/06 05:36:20;;;;;;;0.20;0.20;;;17.30;99.90;;;;;;4357537;32;20444;-66
2022/07/06 05:38:46;;;;;;;0.50;0.50;;;17.20;99.90;;;;;;4357819;32;20275;-67
2022/07/06 05:41:14;;;;;;;0.28;0.28;;;17.30;99.90;;;;;;4373397;32;20257;-67
2022/07/06 05:43:42;;;;;;;0.25;0.25;;;17.40;99.90;;;;;;4389217;32;20245;-67
2022/07/06 05:46:08;;;;;;;0.40;0.40;;;17.40;99.90;;;;;;4400166;32;20143;-67
2022/07/06 05:50:34;;;;;;;2.65;0.93;;;17.30;99.90;;;;;;4400491;32;20897;-67
2022/07/06 05:51:19;;;;;;;0.65;0.65;;;17.30;99.90;;;;;;4381289;32;20093;-67
2022/07/06 05:53:45;;;;;;;0.20;0.20;;;17.40;99.90;;;;;;4394948;32;20070;-67
2022/07/06 05:56:10;;;;;;;0.55;0.52;;;17.40;99.90;;;;;;4404132;32;20142;-67
2022/07/06 05:58:36;;;;;;;0.20;0.20;;;17.50;99.90;;;;;;4402453;32;20630;-66
2022/07/06 06:01:02;;;;;;;0.43;0.43;;;17.50;99.90;;;;;;4388712;32;20255;-67
2022/07/06 06:03:27;;;;;;;0.20;0.20;;;17.60;99.90;;;;;;4380743;32;20564;-66
2022/07/06 06:05:53;;;;;;;0.40;0.40;;;17.60;99.90;;;;;;4380705;32;20847;-66
2022/07/06 06:08:18;;;;;;;1.45;0.82;;;17.60;99.90;;;;;;4403284;32;20081;-66
2022/07/06 06:10:44;;;;;;;0.85;0.50;;;17.60;99.90;;;;;;4407599;32;20077;-66
2022/07/06 06:13:09;;;;;;;0.52;0.52;;;17.70;99.90;;;;;;4410010;32;20290;-66
2022/07/06 06:15:35;;;;;;;0.43;0.43;;;17.70;99.90;;;;;;4415924;32;20979;-66
2022/07/06 06:18:01;;;;;;;1.10;0.40;;;17.60;99.90;;;;;;4406102;32;20164;-66
2022/07/06 06:20:26;;;;;;;0.30;0.30;;;17.70;99.90;;;;;;4388180;32;20175;-66
2022/07/06 06:22:54;;;;;;;0.75;0.68;;;17.70;99.90;;;;;;4396085;32;20478;-66
2022/07/06 06:25:27;;;;;;;0.20;0.20;;;17.70;99.90;;;;;;4403846;32;20095;-66
2022/07/06 06:27:52;;;;;;;0.30;0.30;;;17.80;99.90;;;;;;4416313;32;20309;-68
2022/07/06 06:30:18;;;;;;;0.20;0.20;;;17.70;99.90;;;;;;4396589;32;21029;-67
2022/07/06 06:32:46;;;;;;;1.77;0.62;;;17.80;99.90;;;;;;4386335;32;20198;-67
2022/07/06 06:35:12;;;;;;;0.30;0.30;;;17.90;99.90;;;;;;4391239;32;20334;-67
2022/07/06 06:37:37;;;;;;;0.30;0.30;;;17.80;99.90;;;;;;4398098;32;20065;-67
2022/07/06 06:40:05;;;;;;;0.20;0.20;;;18.00;99.90;;;;;;4413909;32;20117;-67
2022/07/06 06:42:30;;;;;;;0.55;0.55;;;18.00;99.90;;;;;;4410104;32;20309;-66
2022/07/06 06:44:56;;;;;;;0.20;0.20;;;18.00;99.90;;;;;;4415355;32;20092;-67
2022/07/06 06:47:22;;;;;;;0.20;0.20;;;18.10;99.90;;;;;;4411709;32;20175;-67
2022/07/06 06:49:47;;;;;;;0.20;0.20;;;18.00;99.90;;;;;;4393415;32;20064;-67
2022/07/06 06:52:13;;;;;;;0.30;0.30;;;18.00;99.90;;;;;;4389690;32;20255;-67
2022/07/06 06:54:39;;;;;;;1.52;1.05;;;18.10;99.90;;;;;;4412516;32;20081;-69
2022/07/06 06:57:04;;;;;;;0.25;0.25;;;18.00;99.90;;;;;;4417021;32;20083;-66
2022/07/06 06:59:30;;;;;;;0.40;0.40;;;18.10;99.90;;;;;;4400452;32;20193;-67
2022/07/06 07:01:55;;;;;;;0.25;0.25;;;18.30;99.90;;;;;;4381586;32;20219;-68
2022/07/06 07:04:21;;;;;;;0.20;0.20;;;18.50;99.90;;;;;;4386879;32;20357;-68
2022/07/06 07:06:46;;;;;;;0.20;0.20;;;18.70;99.90;;;;;;4393757;32;20121;-68
2022/07/06 07:09:12;;;;;;;2.92;0.77;;;18.90;99.90;;;;;;4411739;32;20119;-68
2022/07/06 07:11:37;;;;;;;0.75;0.75;;;19.00;99.90;;;;;;4416214;32;20077;-67
2022/07/06 07:14:02;;;;;;;0.30;0.30;;;18.90;99.90;;;;;;4418409;32;20073;-68
2022/07/06 07:16:28;;;;;;;4.03;1.30;;;18.80;99.90;;;;;;4417719;32;20405;-69
2022/07/06 07:18:54;;;;;;;0.43;0.43;;;18.50;99.90;;;;;;4399371;32;20291;-68
2022/07/06 07:21:19;;;;;;;0.20;0.20;;;18.30;99.90;;;;;;4390749;32;20223;-68
2022/07/06 07:23:45;;;;;;;0.30;0.30;;;18.40;99.90;;;;;;4394067;32;20251;-66
2022/07/06 07:26:11;;;;;;;0.20;0.20;;;18.60;99.90;;;;;;4409308;32;20140;-66
2022/07/06 07:28:36;;;;;;;0.20;0.20;;;18.80;99.60;;;;;;4405075;32;20353;-66
2022/07/06 07:31:02;;;;;;;0.30;0.30;;;18.90;98.60;;;;;;4387249;32;20223;-65
2022/07/06 07:33:27;;;;;;;0.77;0.75;;;18.80;98.70;;;;;;4386394;32;20462;-65
2022/07/06 07:35:53;;;;;;;0.28;0.28;;;18.90;98.90;;;;;;4383130;32;20250;-65
2022/07/06 07:38:18;;;;;;;0.57;0.55;;;19.00;98.50;;;;;;4398624;32;20172;-65
2022/07/06 07:40:44;;;;;;;0.20;0.20;;;18.90;98.20;;;;;;4410472;32;20093;-65
2022/07/06 07:43:10;;;;;;;0.20;0.20;;;19.10;97.90;;;;;;4409179;32;20096;-65
2022/07/06 07:45:36;;;;;;;0.57;0.50;;;19.40;96.50;;;;;;4418122;32;20659;-65
2022/07/06 07:48:01;;;;;;;0.30;0.30;;;19.60;96.10;;;;;;4411218;32;20073;-65
2022/07/06 07:50:27;;;;;;;0.30;0.30;;;19.70;95.40;;;;;;4389729;32;20340;-66
2022/07/06 07:52:52;;;;;;;0.30;0.30;;;19.80;95.20;;;;;;4395400;32;20147;-65
2022/07/06 07:55:18;;;;;;;0.30;0.30;;;19.70;94.80;;;;;;4405867;32;20065;-65
2022/07/06 07:57:43;;;;;;;0.32;0.32;;;19.70;95.20;;;;;;4405280;32;20144;-65
2022/07/06 08:00:10;;;;;;;0.50;0.50;;;19.80;94.90;;;;;;4390103;32;21141;-65
2022/07/06 08:02:35;;;;;;;0.30;0.30;;;19.70;94.90;;;;;;4381326;32;20265;-65
2022/07/06 08:05:01;;;;;;;0.30;0.30;;;19.70;94.70;;;;;;4382870;32;20511;-64
2022/07/06 08:07:26;;;;;;;0.45;0.45;;;19.70;94.80;;;;;;4391509;32;20424;-64
2022/07/06 08:09:52;;;;;;;0.20;0.20;;;19.80;95.10;;;;;;4404221;32;20644;-65
2022/07/06 08:12:17;;;;;;;0.20;0.20;;;20.00;95.10;;;;;;4410568;32;20069;-66
2022/07/06 08:14:43;;;;;;;0.20;0.20;;;20.10;94.90;;;;;;4402389;32;20264;-65
2022/07/06 08:17:08;;;;;;;0.30;0.30;;;20.00;94.90;;;;;;4411890;32;20088;-66
2022/07/06 08:19:34;;;;;;;0.20;0.20;;;19.90;95.00;;;;;;4388158;32;20066;-66
2022/07/06 08:21:59;;;;;;;0.20;0.20;;;19.90;94.80;;;;;;4375905;32;20077;-66
2022/07/06 08:24:25;;;;;;;0.37;0.37;;;19.80;95.10;;;;;;4412461;32;20504;-66
2022/07/06 08:26:50;;;;;;;0.37;0.37;;;19.60;94.90;;;;;;4402594;32;20096;-66
2022/07/06 08:29:15;;;;;;;0.28;0.28;;;19.30;95.10;;;;;;4387726;32;20346;-66
2022/07/06 08:31:42;;;;;;;0.30;0.30;;;19.30;94.80;;;;;;4370835;32;20504;-66
2022/07/06 08:34:07;;;;;;;0.20;0.20;;;19.40;94.50;;;;;;4381463;32;20076;-66
2022/07/06 08:36:33;;;;;;;0.20;0.20;;;19.50;94.00;;;;;;4379921;32;20263;-66
2022/07/06 08:38:58;;;;;;;0.20;0.20;;;19.60;93.90;;;;;;4411820;32;20321;-66
2022/07/06 08:41:28;;;;;;;0.20;0.20;;;19.50;93.30;;;;;;4412989;32;20508;-66
2022/07/06 08:43:53;;;;;;;0.28;0.28;;;19.60;93.60;;;;;;4412268;32;20065;-66
2022/07/06 08:46:20;;;;;;;0.25;0.25;;;19.90;93.40;;;;;;4421414;32;20089;-66
2022/07/06 08:48:47;;;;;;;0.30;0.30;;;19.70;92.90;;;;;;4390255;32;20070;-66
2022/07/06 08:51:13;;;;;;;0.52;0.45;;;19.60;92.90;;;;;;4365069;32;20674;-65
2022/07/06 08:53:41;;;;;;;0.30;0.30;;;19.50;92.30;;;;;;4401851;32;20105;-65
2022/07/06 08:56:07;;;;;;;0.17;0.17;;;19.50;92.50;;;;;;4422939;32;20069;-67
2022/07/06 08:58:33;;;;;;;5.30;0.90;;;19.50;92.80;;;;;;4411512;32;20532;-65
2022/07/06 09:00:59;;;;;;;0.20;0.20;;;19.70;92.30;;;;;;4399022;32;20387;-65
2022/07/06 09:03:25;;;;;;;0.47;0.47;;;19.60;91.60;;;;;;4385124;32;20501;-65
2022/07/06 09:05:51;;;;;;;3.92;0.30;;;19.30;92.00;;;;;;4381079;32;20118;-67
2022/07/06 09:08:18;;;;;;;0.20;0.20;;;19.20;92.50;;;;;;4409696;32;20077;-65
2022/07/06 09:10:44;;;;;;;0.20;0.20;;;19.20;93.00;;;;;;4419680;32;20093;-65
2022/07/06 09:13:09;;;;;;;0.20;0.20;;;19.20;93.30;;;;;;4407416;32;20407;-65
2022/07/06 09:15:38;;;;;;;0.45;0.45;;;19.10;93.20;;;;;;4409291;32;20089;-66
2022/07/06 09:18:04;;;;;;;0.37;0.37;;;19.00;93.40;;;;;;4407333;32;20442;-66
2022/07/06 09:20:30;;;;;;;0.25;0.25;;;19.00;92.80;;;;;;4383754;32;20146;-66
2022/07/06 09:23:00;;;;;;;0.22;0.22;;;19.00;92.60;;;;;;4388366;32;20082;-66
2022/07/06 09:25:26;;;;;;;0.35;0.32;;;19.10;91.50;;;;;;4407135;32;20131;-66
2022/07/06 09:27:54;;;;;;;0.20;0.20;;;19.20;91.60;;;;;;4407285;32;20434;-66
2022/07/06 09:30:21;;;;;;;0.30;0.30;;;19.20;91.10;;;;;;4382082;32;20901;-66
2022/07/06 09:32:49;;;;;;;0.98;0.40;;;19.10;90.30;;;;;;4368022;32;20140;-66
2022/07/06 09:35:36;;;;;;;0.47;0.47;;;19.10;90.20;;;;;;4366643;32;20715;-66
2022/07/06 09:38:05;;;;;;;0.20;0.20;;;19.10;89.00;;;;;;4379949;32;20101;-66
2022/07/06 09:40:34;;;;;;;14.45;0.50;;;19.20;88.80;;;;;;4405279;32;20086;-66
2022/07/06 09:43:08;;;;;;;1.33;0.43;;;19.40;89.60;;;;;;4400493;32;20515;-66
2022/07/06 09:45:35;;;;;;;0.20;0.20;;;19.50;88.90;;;;;;4405756;32;20137;-66
2022/07/06 09:48:18;;;;;;;0.20;0.20;;;19.70;88.50;;;;;;4413859;32;20085;-66
2022/07/06 09:50:48;;;;;;;0.85;0.82;;;20.00;87.20;;;;;;4371034;32;20819;-67
2022/07/06 09:53:14;;;;;;;0.20;0.20;;;20.50;86.70;;;;;;4368454;32;20374;-67
2022/07/06 09:55:45;;;;;;;0.20;0.20;;;20.60;87.00;;;;;;4414434;32;20504;-65
2022/07/06 09:58:11;;;;;;;0.62;0.62;;;20.60;88.20;;;;;;4399241;32;20673;-65
2022/07/06 10:00:36;;;;;;;0.28;0.28;;;20.30;89.40;;;;;;4376571;32;20126;-66
2022/07/06 10:03:02;;;;;;;0.20;0.20;;;20.00;90.20;;;;;;4364253;32;20245;-65
2022/07/06 10:05:29;;;;;;;0.25;0.25;;;19.80;90.20;;;;;;4367035;32;20156;-66
2022/07/06 10:07:58;;;;;;;0.20;0.20;;;19.60;90.30;;;;;;4384562;32;20069;-65
2022/07/06 10:10:27;;;;;;;0.20;0.20;;;19.60;90.30;;;;;;4410821;32;20510;-65
2022/07/06 10:12:55;;;;;;;0.20;0.20;;;19.60;89.20;;;;;;4426843;32;20072;-65
2022/07/06 10:15:23;;;;;;;0.10;0.10;;;19.60;89.20;;;;;;4411233;32;20073;-65
2022/07/06 10:17:50;;;;;;;0.20;0.20;;;19.60;89.40;;;;;;4396935;32;20168;-65
2022/07/06 10:20:16;;;;;;;0.20;0.20;;;19.70;90.00;;;;;;4394098;32;20309;-65
2022/07/06 10:22:42;;;;;;;0.20;0.20;;;19.70;88.10;;;;;;4391163;32;20085;-66
2022/07/06 10:25:07;;;;;;;1.45;0.52;;;19.60;87.60;;;;;;4425665;32;20069;-65
2022/07/06 10:27:35;;;;;;;2.55;0.45;;;19.50;89.20;;;;;;4424473;32;20144;-65
2022/07/06 10:30:01;;;;;;;0.20;0.20;;;19.60;90.00;;;;;;4384042;32;20303;-65
2022/07/06 10:32:28;;;;;;;0.20;0.20;;;19.70;88.70;;;;;;4372955;32;20935;-65
2022/07/06 10:34:53;;;;;;;0.20;0.20;;;19.90;88.90;;;;;;4386073;32;20105;-65
2022/07/06 10:37:27;;;;;;;0.20;0.20;;;20.10;88.70;;;;;;4401790;32;20519;-65
2022/07/06 10:41:09;;;;;;;0.20;0.20;;;20.30;86.30;;;;;;4402722;32;20073;-65
2022/07/06 10:42:55;;;;;;;0.30;0.30;;;20.30;85.70;;;;;;4399145;32;20359;-66
2022/07/06 10:45:49;;;;;;;0.20;0.20;;;20.30;86.90;;;;;;4403706;32;20078;-65
2022/07/06 10:48:17;;;;;;;0.37;0.37;;;20.40;87.40;;;;;;4406534;32;20150;-65
2022/07/06 10:50:50;;;;;;;0.98;0.73;;;20.50;87.30;;;;;;4378165;32;20281;-66
2022/07/06 10:53:22;;;;;;;0.22;0.22;;;20.50;88.30;;;;;;4402795;32;20069;-66
2022/07/06 10:55:51;;;;;;;0.20;0.20;;;20.50;87.50;;;;;;4411025;32;20243;-65
2022/07/06 10:58:40;;;;;;;0.52;0.52;;;20.70;88.00;;;;;;4420980;32;20072;-66
2022/07/06 11:01:06;;;;;;;0.20;0.20;;;21.10;84.70;;;;;;4372846;32;20085;-66
2022/07/06 11:03:39;;;;;;;0.20;0.20;;;21.30;83.50;;;;;;4373513;32;20085;-66
2022/07/06 11:06:22;;;;;;;0.25;0.25;;;21.50;82.60;;;;;;4357940;32;20949;-65
2022/07/06 11:08:57;;;;;;;0.20;0.20;;;22.00;82.20;;;;;;4398404;32;20888;-66
2022/07/06 11:11:26;;;;;;;6.60;0.43;;;21.90;81.30;;;;;;4399434;32;20174;-65
2022/07/06 11:13:56;;;;;;;0.20;0.20;;;21.20;83.40;;;;;;4404733;32;20085;-66
2022/07/06 11:16:26;;;;;;;0.30;0.30;;;20.80;84.80;;;;;;4412079;32;20888;-66
2022/07/06 11:19:02;;;;;;;0.73;0.65;;;20.40;86.40;;;;;;4412920;32;20681;-66
2022/07/06 11:21:38;;;;;;;0.22;0.22;;;20.20;88.00;;;;;;4391288;32;20542;-66
2022/07/06 11:24:06;;;;;;;0.20;0.20;;;20.20;88.50;;;;;;4420922;32;20070;-66
2022/07/06 11:26:32;;;;;;;0.30;0.30;;;20.30;88.90;;;;;;4429329;32;20086;-66
2022/07/06 11:29:00;;;;;;;0.30;0.30;;;20.20;88.30;;;;;;4400792;32;20592;-66
2022/07/06 11:31:25;;;;;;;0.35;0.35;;;20.20;88.90;;;;;;4393960;32;20458;-66
2022/07/06 11:33:51;;;;;;;0.20;0.20;;;20.60;88.30;;;;;;4389935;32;20284;-66
2022/07/06 11:36:20;;;;;;;0.20;0.20;;;20.90;86.50;;;;;;4388805;32;20218;-66
2022/07/06 11:38:48;;;;;;;0.30;0.30;;;21.00;85.10;;;;;;4396343;32;20549;-66
2022/07/06 11:41:14;;;;;;;1.10;0.82;;;21.10;84.80;;;;;;4429747;32;20464;-66
2022/07/06 11:43:43;;;;;;;0.30;0.30;;;20.90;84.70;;;;;;4403843;32;20169;-65
2022/07/06 11:46:26;;;;;;;0.30;0.30;;;21.10;85.80;;;;;;4425727;32;20631;-66
2022/07/06 11:48:56;;;;;;;0.20;0.20;;;21.20;85.60;;;;;;4408701;32;20434;-66
2022/07/06 11:51:23;;;;;;;0.20;0.20;;;21.40;85.40;;;;;;4369947;32;20183;-66
2022/07/06 11:53:53;;;;;;;0.20;0.20;;;21.50;84.00;;;;;;4403061;32;20136;-66
2022/07/06 11:56:18;;;;;;;0.20;0.20;;;21.80;83.60;;;;;;4416007;32;20062;-66
2022/07/06 11:58:46;;;;;;;0.20;0.20;;;22.10;83.40;;;;;;4403038;32;20093;-66
2022/07/06 12:01:12;;;;;;;0.28;0.28;;;22.30;81.10;;;;;;4395639;32;20352;-66
2022/07/06 12:03:38;;;;;;;0.17;0.17;;;22.20;80.80;;;;;;4377837;32;20216;-66
2022/07/06 12:06:06;;;;;;;0.13;0.13;;;21.90;83.00;;;;;;4388203;32;20433;-66
2022/07/06 12:08:33;;;;;;;0.43;0.43;;;21.60;83.30;;;;;;4399757;32;20065;-65
2022/07/06 12:10:59;;;;;;;15.80;0.40;;;21.30;84.60;;;;;;4446374;32;20473;-66
2022/07/06 12:13:25;;;;;;;0.22;0.22;;;21.30;85.70;;;;;;4428275;32;20479;-66
2022/07/06 12:15:51;;;;;;;0.20;0.20;;;21.30;85.60;;;;;;4428999;32;20437;-66
2022/07/06 12:18:16;;;;;;;0.30;0.30;;;21.20;86.00;;;;;;4419334;32;20604;-65
2022/07/06 12:20:43;;;;;;;0.30;0.30;;;21.20;87.20;;;;;;4368142;32;20140;-66
2022/07/06 12:23:08;;;;;;;0.17;0.17;;;21.20;86.00;;;;;;4391859;32;20542;-65
2022/07/06 12:25:35;;;;;;;0.20;0.20;;;21.20;86.10;;;;;;4431285;32;20146;-66
2022/07/06 12:28:01;;;;;;;0.30;0.30;;;21.20;86.10;;;;;;4409374;32;20061;-66
2022/07/06 12:30:27;;;;;;;0.20;0.20;;;21.40;86.90;;;;;;4372278;32;20117;-66
2022/07/06 12:33:15;;;;;;;0.20;0.20;;;21.80;87.20;;;;;;4381961;32;20334;-66
2022/07/06 12:35:41;;;;;;;0.35;0.35;;;22.20;85.80;;;;;;4376795;32;20265;-66
2022/07/06 12:38:07;;;;;;;0.20;0.20;;;22.60;83.60;;;;;;4418331;32;20531;-66
2022/07/06 12:40:32;;;;;;;0.20;0.20;;;22.80;82.10;;;;;;4435077;32;20131;-66
2022/07/06 12:42:58;;;;;;;0.10;0.10;;;22.40;83.60;;;;;;4425573;32;20340;-66